Time;durP1;ratioP1;P1;durP2;ratioP2;P2;SDS_P1;SDS_P2;PMS_P1;PMS_P2;Temp;Humidity;BMP_temperature;BMP_pressure;BME280_temperature;BME280_humidity;BME280_pressure;Samples;Min_cycle;Max_cycle;Signal;HPM_P1;HPM_P2
2022/12/29 00:01:55;;;;;;;4.53;1.20;;;21.30;99.90;;;;;;4991646;28;20325;-78
2022/12/29 00:04:26;;;;;;;5.25;0.90;;;21.40;99.90;;;;;;4992193;28;20306;-84
2022/12/29 00:06:57;;;;;;;2.47;1.25;;;21.40;99.90;;;;;;4993432;28;20703;-77
2022/12/29 00:09:30;;;;;;;6.90;1.10;;;21.40;99.90;;;;;;4989677;28;20210;-78
2022/12/29 00:12:01;;;;;;;5.93;1.10;;;21.40;99.90;;;;;;4994782;28;20395;-78
2022/12/29 00:17:19;;;;;;;5.32;1.35;;;21.60;99.90;;;;;;4989755;28;20203;-80
2022/12/29 00:36:38;;;;;;;7.60;1.75;;;21.40;99.90;;;;;;4980545;28;20210;-78
2022/12/29 00:45:03;;;;;;;6.53;1.75;;;21.40;99.90;;;;;;4993751;28;20198;-78
2022/12/29 00:47:34;;;;;;;8.63;1.60;;;21.50;99.90;;;;;;4993911;28;20210;-77
2022/12/29 00:50:04;;;;;;;6.97;1.58;;;21.50;99.90;;;;;;4993199;28;20242;-81
2022/12/29 00:52:34;;;;;;;8.43;1.48;;;21.60;99.90;;;;;;4993782;28;20231;-79
2022/12/29 00:55:05;;;;;;;11.50;2.05;;;21.80;99.90;;;;;;4995092;28;20198;-81
2022/12/29 00:57:38;;;;;;;8.77;1.60;;;21.80;99.90;;;;;;4994667;28;20279;-81
2022/12/29 01:00:10;;;;;;;6.20;1.50;;;21.90;99.90;;;;;;4993752;28;20219;-82
2022/12/29 01:02:41;;;;;;;9.98;2.10;;;22.00;99.90;;;;;;4993611;28;20203;-77
2022/12/29 01:05:12;;;;;;;9.30;2.03;;;22.00;99.90;;;;;;4995405;28;20219;-77
2022/12/29 01:07:42;;;;;;;8.85;1.60;;;21.90;99.90;;;;;;4995399;28;20290;-78
2022/12/29 01:10:12;;;;;;;11.23;2.35;;;21.80;99.90;;;;;;4993997;28;20286;-75
2022/12/29 01:12:44;;;;;;;8.73;2.13;;;21.80;99.90;;;;;;4992382;28;20207;-78
2022/12/29 01:15:17;;;;;;;8.75;1.80;;;21.80;99.90;;;;;;4986741;28;20254;-80
2022/12/29 01:17:47;;;;;;;10.18;2.08;;;21.90;99.90;;;;;;4990300;28;20279;-84
2022/12/29 01:20:18;;;;;;;11.50;2.20;;;21.90;99.90;;;;;;4993419;28;20219;-81
2022/12/29 01:22:49;;;;;;;7.60;1.88;;;22.00;99.90;;;;;;4991466;28;20195;-76
2022/12/29 01:25:20;;;;;;;13.32;6.35;;;21.90;99.90;;;;;;4994236;28;20279;-84
2022/12/29 01:27:53;;;;;;;9.32;2.35;;;21.90;99.90;;;;;;4993813;28;20270;-80
2022/12/29 01:30:23;;;;;;;11.50;2.30;;;21.90;99.90;;;;;;4991409;28;20200;-78
2022/12/29 01:32:54;;;;;;;12.45;2.45;;;21.90;99.90;;;;;;4987006;28;20546;-79
2022/12/29 01:35:25;;;;;;;10.10;2.40;;;22.00;99.90;;;;;;4992732;28;20191;-82
2022/12/29 01:37:56;;;;;;;10.27;2.15;;;22.00;99.90;;;;;;4993649;28;20207;-77
2022/12/29 01:40:27;;;;;;;11.13;2.05;;;22.20;99.90;;;;;;4993787;28;20651;-83
2022/12/29 01:43:00;;;;;;;10.80;1.95;;;22.20;99.90;;;;;;4989316;28;20250;-77
2022/12/29 01:45:31;;;;;;;9.50;2.10;;;22.10;99.90;;;;;;4989743;28;20202;-86
2022/12/29 01:48:05;;;;;;;9.43;2.15;;;22.00;99.90;;;;;;4987295;28;20234;-83
2022/12/29 01:50:38;;;;;;;7.53;2.00;;;22.00;99.90;;;;;;4985389;28;20190;-80
2022/12/29 01:53:11;;;;;;;12.02;1.95;;;22.10;99.90;;;;;;4974903;28;20296;-79
2022/12/29 01:55:47;;;;;;;9.52;2.00;;;22.20;99.90;;;;;;4983302;28;20689;-82
2022/12/29 01:58:23;;;;;;;10.13;2.40;;;22.30;99.90;;;;;;4988019;28;20187;-79
2022/12/29 02:00:53;;;;;;;7.28;1.77;;;22.40;99.90;;;;;;4989498;28;20198;-83
2022/12/29 02:03:26;;;;;;;5.47;1.48;;;22.30;99.90;;;;;;4980774;28;20294;-78
2022/12/29 02:06:00;;;;;;;6.95;1.70;;;22.30;99.90;;;;;;4983823;28;20199;-78
2022/12/29 02:08:33;;;;;;;11.57;2.03;;;22.30;99.90;;;;;;4981122;28;20203;-81
2022/12/29 02:11:05;;;;;;;9.93;2.10;;;22.40;99.90;;;;;;4978059;28;20203;-83
2022/12/29 02:13:37;;;;;;;24.70;16.63;;;22.40;99.90;;;;;;4979242;28;20667;-78
2022/12/29 02:16:20;;;;;;;6.45;2.75;;;22.50;99.90;;;;;;4982801;28;20215;-80
2022/12/29 02:19:00;;;;;;;23.25;12.38;;;22.40;99.90;;;;;;4978467;28;20223;-79
2022/12/29 02:22:02;;;;;;;7.18;2.20;;;22.40;99.90;;;;;;4986287;28;20291;-83
2022/12/29 02:24:57;;;;;;;6.78;1.50;;;22.40;99.90;;;;;;4989141;28;20195;-81
2022/12/29 02:27:55;;;;;;;7.22;1.77;;;22.30;99.90;;;;;;4990844;28;20212;-77
2022/12/29 02:30:49;;;;;;;6.50;1.80;;;22.40;99.90;;;;;;4974539;28;20218;-80
2022/12/29 02:33:36;;;;;;;4.55;1.80;;;22.50;99.90;;;;;;4988808;28;20196;-80
2022/12/29 02:36:19;;;;;;;7.38;1.63;;;22.60;99.90;;;;;;4990204;28;20204;-76
2022/12/29 02:38:58;;;;;;;8.63;1.90;;;22.60;99.90;;;;;;4989790;28;20215;-80
2022/12/29 02:41:39;;;;;;;7.05;1.80;;;22.70;99.90;;;;;;4992207;28;20722;-78
2022/12/29 02:44:16;;;;;;;5.00;1.90;;;22.80;99.90;;;;;;4992463;28;20203;-80
2022/12/29 02:46:55;;;;;;;4.65;1.63;;;22.80;99.90;;;;;;4990906;28;20206;-80
2022/12/29 02:49:32;;;;;;;6.50;1.90;;;22.80;99.90;;;;;;4986777;28;20235;-79
2022/12/29 02:52:07;;;;;;;8.85;1.95;;;22.70;99.90;;;;;;4993946;28;20634;-77
2022/12/29 02:54:42;;;;;;;6.15;2.20;;;22.50;99.90;;;;;;4995606;28;20281;-80
2022/12/29 02:57:16;;;;;;;5.35;1.88;;;22.50;99.90;;;;;;4991126;28;20634;-80
2022/12/29 02:59:50;;;;;;;6.50;2.20;;;22.50;99.90;;;;;;4979360;28;20215;-82
2022/12/29 03:02:41;;;;;;;6.82;1.90;;;22.50;99.90;;;;;;4983406;28;20692;-81
2022/12/29 03:05:25;;;;;;;7.93;2.00;;;22.60;99.90;;;;;;4989893;28;20306;-80
2022/12/29 03:08:05;;;;;;;7.90;1.95;;;22.70;99.90;;;;;;4985737;28;20215;-80
2022/12/29 03:10:44;;;;;;;6.22;1.70;;;22.90;99.90;;;;;;4992894;28;20208;-82
2022/12/29 03:16:23;;;;;;;6.57;1.80;;;23.10;99.90;;;;;;4996871;28;20218;-76
2022/12/29 03:19:03;;;;;;;5.03;1.75;;;23.30;99.90;;;;;;4987159;28;20274;-83
2022/12/29 03:24:29;;;;;;;7.45;2.10;;;23.20;99.90;;;;;;4985733;28;20199;-79
2022/12/29 03:27:03;;;;;;;7.82;1.92;;;23.20;99.90;;;;;;4985704;28;20290;-81
2022/12/29 03:29:39;;;;;;;6.70;1.85;;;23.20;99.90;;;;;;4983259;28;20277;-77
2022/12/29 03:32:12;;;;;;;7.35;1.90;;;23.20;99.90;;;;;;4996456;28;20287;-80
2022/12/29 03:34:45;;;;;;;6.85;2.08;;;23.20;99.90;;;;;;4996321;28;20283;-84
2022/12/29 03:37:20;;;;;;;4.47;1.55;;;23.30;99.90;;;;;;4996150;28;20726;-81
2022/12/29 03:39:51;;;;;;;8.30;2.03;;;23.30;99.90;;;;;;4986679;28;20215;-78
2022/12/29 03:42:26;;;;;;;6.63;1.90;;;23.30;99.90;;;;;;4992904;28;20210;-78
2022/12/29 03:44:59;;;;;;;6.68;1.88;;;23.30;99.90;;;;;;4988481;28;20274;-82
2022/12/29 03:47:31;;;;;;;7.00;1.90;;;23.30;99.90;;;;;;4989718;28;20245;-76
2022/12/29 03:50:04;;;;;;;8.07;1.92;;;23.30;99.90;;;;;;4994660;28;20199;-82
2022/12/29 03:52:35;;;;;;;8.95;1.98;;;23.30;99.90;;;;;;4983589;28;20737;-80
2022/12/29 03:55:05;;;;;;;9.85;2.17;;;23.30;99.90;;;;;;4994526;28;20206;-79
2022/12/29 03:57:36;;;;;;;7.70;2.13;;;23.30;99.90;;;;;;4994247;28;20545;-84
2022/12/29 04:00:08;;;;;;;5.32;1.60;;;23.30;99.90;;;;;;4985669;28;20252;-79
2022/12/29 04:02:39;;;;;;;6.60;1.67;;;23.30;99.90;;;;;;4995899;28;20652;-80
2022/12/29 04:05:12;;;;;;;7.25;1.77;;;23.40;99.90;;;;;;4995885;28;20219;-75
2022/12/29 04:07:43;;;;;;;7.05;1.45;;;23.40;99.90;;;;;;4995389;28;20562;-81
2022/12/29 04:10:19;;;;;;;7.25;1.70;;;23.40;99.90;;;;;;4995606;28;20275;-78
2022/12/29 04:12:50;;;;;;;7.10;1.73;;;23.40;99.90;;;;;;5001014;28;20289;-79
2022/12/29 04:15:21;;;;;;;4.93;1.60;;;23.40;99.90;;;;;;4992839;28;20255;-83
2022/12/29 04:17:52;;;;;;;5.80;1.80;;;23.40;99.90;;;;;;4987306;28;20342;-84
2022/12/29 04:23:14;;;;;;;7.00;1.50;;;23.50;99.90;;;;;;4987673;28;20203;-81
2022/12/29 04:25:47;;;;;;;6.68;1.55;;;23.50;99.90;;;;;;4991874;28;20203;-80
2022/12/29 04:28:18;;;;;;;5.55;1.55;;;23.40;99.90;;;;;;4990331;28;20311;-80
2022/12/29 04:30:49;;;;;;;5.32;1.60;;;23.30;99.90;;;;;;4993806;28;20202;-76
2022/12/29 04:33:21;;;;;;;5.03;1.63;;;23.30;99.90;;;;;;4991049;28;20278;-78
2022/12/29 04:35:54;;;;;;;6.40;1.75;;;23.30;99.90;;;;;;4984694;28;20279;-82
2022/12/29 04:38:25;;;;;;;7.65;1.80;;;23.30;99.90;;;;;;4986469;28;20208;-82
2022/12/29 04:40:56;;;;;;;7.68;1.70;;;23.20;99.90;;;;;;4986463;28;20226;-82
2022/12/29 04:43:27;;;;;;;9.07;1.98;;;23.00;99.90;;;;;;4983516;28;20265;-80
2022/12/29 04:45:58;;;;;;;9.30;1.48;;;22.80;99.90;;;;;;4983137;28;20192;-84
2022/12/29 04:48:29;;;;;;;6.30;1.83;;;22.80;99.90;;;;;;4988380;28;20319;-83
2022/12/29 04:51:02;;;;;;;7.78;1.73;;;22.80;99.90;;;;;;4987716;28;20294;-82
2022/12/29 04:53:33;;;;;;;7.75;1.45;;;22.80;99.90;;;;;;4991543;28;20203;-81
2022/12/29 04:56:03;;;;;;;5.18;1.75;;;22.80;99.90;;;;;;4989176;28;20202;-81
2022/12/29 04:58:34;;;;;;;7.95;2.03;;;22.80;99.90;;;;;;4989315;28;20202;-83
2022/12/29 05:01:08;;;;;;;7.00;1.80;;;22.70;99.90;;;;;;4992743;28;20219;-82
2022/12/29 05:03:39;;;;;;;9.90;1.92;;;22.70;99.90;;;;;;4993451;28;20306;-82
2022/12/29 05:06:12;;;;;;;7.78;1.95;;;22.70;99.90;;;;;;4992915;28;21775;-81
2022/12/29 05:08:42;;;;;;;9.45;1.90;;;22.70;99.90;;;;;;4984443;28;20205;-80
2022/12/29 05:11:13;;;;;;;9.38;1.70;;;22.70;99.90;;;;;;4990119;28;20203;-81
2022/12/29 05:13:47;;;;;;;7.47;2.10;;;22.70;99.90;;;;;;4989139;28;20200;-81
2022/12/29 05:16:18;;;;;;;7.53;1.70;;;22.70;99.90;;;;;;4991061;28;20199;-78
2022/12/29 05:18:51;;;;;;;8.68;1.92;;;22.70;99.90;;;;;;4991596;28;20595;-80
2022/12/29 05:21:24;;;;;;;7.20;2.10;;;22.60;99.90;;;;;;4991044;28;20215;-82
2022/12/29 05:23:56;;;;;;;6.95;1.90;;;22.50;99.90;;;;;;4993357;28;20202;-78
2022/12/29 05:26:27;;;;;;;8.45;2.08;;;22.40;99.90;;;;;;4991532;28;20286;-79
2022/12/29 05:28:58;;;;;;;8.60;1.88;;;22.20;99.90;;;;;;4991634;28;20278;-78
2022/12/29 05:31:28;;;;;;;9.50;2.10;;;22.30;99.90;;;;;;4991167;28;20286;-79
2022/12/29 05:33:59;;;;;;;11.18;2.40;;;22.20;99.90;;;;;;4992013;28;20567;-79
2022/12/29 05:36:33;;;;;;;8.55;2.15;;;22.20;99.90;;;;;;4989690;28;20199;-80
2022/12/29 05:39:04;;;;;;;7.40;2.00;;;22.20;99.90;;;;;;4992840;28;20274;-79
2022/12/29 05:41:34;;;;;;;7.65;2.10;;;22.30;99.90;;;;;;4992952;28;20302;-79
2022/12/29 05:44:09;;;;;;;8.55;1.75;;;22.20;99.90;;;;;;4985108;28;20279;-81
2022/12/29 05:46:39;;;;;;;9.23;2.10;;;22.10;99.90;;;;;;4992107;28;20318;-81
2022/12/29 05:49:11;;;;;;;11.90;2.40;;;22.20;99.90;;;;;;4993533;28;20662;-80
2022/12/29 05:51:43;;;;;;;7.88;1.98;;;22.20;99.90;;;;;;4991103;28;20294;-82
2022/12/29 05:54:14;;;;;;;8.63;1.98;;;22.20;99.90;;;;;;4990612;28;20203;-79
2022/12/29 05:56:45;;;;;;;8.15;2.10;;;22.20;99.90;;;;;;4991949;28;20199;-79
2022/12/29 05:59:16;;;;;;;12.20;1.92;;;22.20;99.90;;;;;;4993482;28;20667;-80
2022/12/29 06:01:46;;;;;;;7.70;1.75;;;22.20;99.90;;;;;;4993883;28;20221;-80
2022/12/29 06:04:17;;;;;;;7.97;1.70;;;22.20;99.90;;;;;;4992136;28;20215;-79
2022/12/29 06:06:50;;;;;;;10.90;2.05;;;22.10;99.90;;;;;;4984434;28;20287;-78
2022/12/29 06:09:21;;;;;;;8.77;2.13;;;22.10;99.90;;;;;;4993471;28;20390;-77
2022/12/29 06:11:52;;;;;;;6.60;2.00;;;22.00;99.90;;;;;;4993450;28;20570;-79
2022/12/29 06:14:22;;;;;;;11.98;2.35;;;21.90;99.90;;;;;;4993569;28;20202;-79
2022/12/29 06:16:53;;;;;;;8.85;2.00;;;21.90;99.90;;;;;;4984208;28;20195;-80
2022/12/29 06:19:24;;;;;;;8.57;2.13;;;21.80;99.90;;;;;;4992423;28;20204;-80
2022/12/29 06:21:57;;;;;;;7.47;1.65;;;21.80;99.90;;;;;;4992493;28;20237;-80
2022/12/29 06:24:28;;;;;;;5.93;1.77;;;21.70;99.90;;;;;;4993383;28;20681;-81
2022/12/29 06:26:58;;;;;;;7.75;1.85;;;21.60;99.90;;;;;;4992710;28;20738;-81
2022/12/29 06:29:29;;;;;;;9.05;2.03;;;21.50;99.90;;;;;;4992460;28;20279;-79
2022/12/29 06:32:00;;;;;;;7.90;1.58;;;21.40;99.90;;;;;;4991213;28;20552;-83
2022/12/29 06:34:31;;;;;;;8.40;1.88;;;21.30;99.90;;;;;;4991533;28;20665;-79
2022/12/29 06:37:04;;;;;;;10.32;1.88;;;21.30;99.90;;;;;;4986197;28;20621;-80
2022/12/29 06:39:35;;;;;;;8.20;1.77;;;21.20;99.90;;;;;;4979388;28;20210;-80
2022/12/29 06:42:05;;;;;;;6.93;1.45;;;21.20;99.90;;;;;;4994557;28;20230;-80
2022/12/29 06:44:36;;;;;;;7.95;1.75;;;21.20;99.90;;;;;;4997272;28;20200;-81
2022/12/29 06:47:07;;;;;;;10.73;1.70;;;21.20;99.90;;;;;;4992974;28;20279;-84
2022/12/29 06:49:38;;;;;;;8.57;2.15;;;21.20;99.90;;;;;;4993851;28;20318;-83
2022/12/29 06:52:14;;;;;;;5.57;1.55;;;21.20;99.90;;;;;;4992407;28;20280;-81
2022/12/29 06:54:45;;;;;;;8.75;1.80;;;21.20;99.90;;;;;;4995728;28;20210;-86
2022/12/29 06:57:15;;;;;;;9.32;1.75;;;21.10;99.90;;;;;;4996916;28;20655;-81
2022/12/29 06:59:46;;;;;;;8.60;2.15;;;21.10;99.90;;;;;;4994575;28;20198;-82
2022/12/29 07:02:18;;;;;;;9.45;1.75;;;21.00;99.90;;;;;;4995777;28;20207;-82
2022/12/29 07:04:48;;;;;;;9.52;2.50;;;21.00;99.90;;;;;;4994793;28;20302;-80
2022/12/29 07:07:22;;;;;;;7.03;1.70;;;21.00;99.90;;;;;;4986961;28;20195;-81
2022/12/29 07:09:53;;;;;;;6.35;1.42;;;21.00;99.90;;;;;;4995858;28;20200;-79
2022/12/29 07:12:24;;;;;;;9.15;1.75;;;21.00;99.90;;;;;;4992697;28;20195;-79
2022/12/29 07:14:54;;;;;;;6.72;2.20;;;21.00;99.90;;;;;;4992249;28;20235;-78
2022/12/29 07:17:25;;;;;;;8.75;2.00;;;21.00;99.90;;;;;;4987684;28;20207;-77
2022/12/29 07:19:56;;;;;;;9.00;1.95;;;21.00;99.90;;;;;;4995210;28;20199;-78
2022/12/29 07:22:29;;;;;;;8.35;1.73;;;21.00;99.90;;;;;;4995397;28;20329;-79
2022/12/29 07:25:00;;;;;;;7.78;1.83;;;21.00;99.90;;;;;;4994779;28;20261;-80
2022/12/29 07:27:34;;;;;;;6.63;1.70;;;20.90;99.90;;;;;;4995572;28;20206;-78
2022/12/29 07:30:05;;;;;;;6.05;1.48;;;20.90;99.90;;;;;;4994816;28;20578;-78
2022/12/29 07:32:37;;;;;;;8.02;1.67;;;20.90;99.90;;;;;;4996778;28;20207;-77
2022/12/29 07:35:09;;;;;;;9.98;2.00;;;20.80;99.90;;;;;;4992590;28;20195;-83
2022/12/29 07:37:42;;;;;;;6.03;1.65;;;20.80;99.90;;;;;;4995866;28;20199;-77
2022/12/29 07:40:14;;;;;;;7.50;1.67;;;20.80;99.90;;;;;;4996613;28;20298;-80
2022/12/29 07:42:45;;;;;;;6.40;1.90;;;20.80;99.90;;;;;;4996206;28;20291;-78
2022/12/29 07:45:15;;;;;;;9.90;1.92;;;20.70;99.90;;;;;;4985624;28;20196;-78
2022/12/29 07:47:49;;;;;;;10.32;1.88;;;20.60;99.90;;;;;;4997738;28;20242;-78
2022/12/29 07:50:20;;;;;;;9.23;1.60;;;20.60;99.90;;;;;;4999560;28;20287;-80
2022/12/29 07:52:53;;;;;;;9.93;2.10;;;20.60;99.90;;;;;;4995402;28;20192;-78
2022/12/29 07:55:24;;;;;;;11.40;1.98;;;20.60;99.90;;;;;;4994979;28;20204;-79
2022/12/29 07:57:56;;;;;;;8.43;1.83;;;20.50;99.90;;;;;;4994075;28;20667;-80
2022/12/29 08:00:27;;;;;;;12.75;2.30;;;20.50;99.90;;;;;;4992918;28;20220;-77
2022/12/29 08:03:01;;;;;;;6.68;1.92;;;20.50;99.90;;;;;;4987565;28;20210;-81
2022/12/29 08:05:33;;;;;;;6.93;1.50;;;20.60;99.90;;;;;;4994594;28;20196;-80
2022/12/29 08:08:05;;;;;;;6.85;1.60;;;20.50;99.90;;;;;;4993802;28;20206;-78
2022/12/29 08:10:36;;;;;;;6.72;1.95;;;20.50;99.90;;;;;;4985228;28;20743;-80
2022/12/29 08:13:07;;;;;;;8.68;2.00;;;20.50;99.90;;;;;;4993555;28;20196;-81
2022/12/29 08:15:39;;;;;;;9.63;1.67;;;20.50;99.90;;;;;;4992420;28;20675;-76
2022/12/29 08:18:10;;;;;;;10.85;1.90;;;20.50;99.90;;;;;;4992628;28;20308;-81
2022/12/29 08:20:41;;;;;;;8.93;1.70;;;20.50;99.90;;;;;;4988017;28;20274;-76
2022/12/29 08:23:13;;;;;;;9.32;1.73;;;20.50;99.90;;;;;;4992326;28;20205;-82
2022/12/29 08:25:44;;;;;;;11.77;4.20;;;20.50;99.90;;;;;;4992172;28;20192;-78
2022/12/29 08:28:15;;;;;;;9.25;2.00;;;20.40;99.90;;;;;;4983940;28;20287;-79
2022/12/29 08:30:46;;;;;;;8.43;2.10;;;20.40;99.90;;;;;;4994330;28;20856;-82
2022/12/29 08:33:17;;;;;;;8.13;2.00;;;20.40;99.90;;;;;;4990957;28;20282;-79
2022/12/29 08:35:47;;;;;;;10.65;2.72;;;20.30;99.90;;;;;;4991097;28;20206;-79
2022/12/29 08:38:20;;;;;;;10.63;4.15;;;20.40;99.90;;;;;;4990185;28;20196;-81
2022/12/29 08:40:51;;;;;;;13.00;4.25;;;20.30;99.90;;;;;;4990799;28;20777;-82
2022/12/29 08:43:22;;;;;;;10.85;2.60;;;20.30;99.90;;;;;;4992807;28;20612;-81
2022/12/29 08:45:53;;;;;;;8.93;2.70;;;20.30;99.90;;;;;;4990224;28;20278;-82
2022/12/29 08:48:24;;;;;;;11.05;2.35;;;20.30;99.90;;;;;;4990918;28;20231;-85
2022/12/29 08:50:55;;;;;;;10.38;1.80;;;20.30;99.90;;;;;;4994941;28;20204;-75
2022/12/29 08:53:28;;;;;;;13.07;2.35;;;20.20;99.90;;;;;;4993815;28;20217;-76
2022/12/29 08:56:02;;;;;;;11.18;2.20;;;20.20;99.90;;;;;;4990748;28;20195;-77
2022/12/29 08:58:33;;;;;;;8.80;2.25;;;20.20;99.90;;;;;;4991402;28;20213;-78
2022/12/29 09:01:04;;;;;;;7.38;1.85;;;20.20;99.90;;;;;;4991259;28;20302;-76
2022/12/29 09:03:35;;;;;;;7.07;1.90;;;20.20;99.90;;;;;;4992564;28;20223;-78
2022/12/29 09:06:06;;;;;;;9.25;2.08;;;20.20;99.90;;;;;;4990514;28;20726;-77
2022/12/29 09:08:39;;;;;;;9.98;2.50;;;20.20;99.90;;;;;;4989578;28;20275;-76
2022/12/29 09:11:14;;;;;;;8.02;1.55;;;20.10;99.90;;;;;;4991237;28;20262;-78
2022/12/29 09:13:45;;;;;;;8.65;2.47;;;20.10;99.90;;;;;;4992252;28;20695;-78
2022/12/29 09:16:17;;;;;;;13.88;2.35;;;20.10;99.90;;;;;;4989314;28;20290;-77
2022/12/29 09:18:51;;;;;;;8.63;1.92;;;20.10;99.90;;;;;;4981785;28;20204;-77
2022/12/29 09:21:21;;;;;;;8.73;1.65;;;20.10;99.90;;;;;;4992195;28;20212;-78
2022/12/29 09:23:54;;;;;;;9.07;1.65;;;20.10;99.90;;;;;;4991245;28;20195;-77
2022/12/29 09:26:25;;;;;;;8.55;1.90;;;20.10;99.90;;;;;;4996762;28;20200;-76
2022/12/29 09:28:56;;;;;;;9.98;1.75;;;20.00;99.90;;;;;;4993696;28;20287;-77
2022/12/29 09:31:35;;;;;;;7.25;1.55;;;20.10;99.90;;;;;;4993159;28;20210;-76
2022/12/29 09:34:06;;;;;;;9.45;1.90;;;20.10;99.90;;;;;;4988765;28;20659;-77
2022/12/29 09:36:37;;;;;;;10.27;1.77;;;20.10;99.90;;;;;;4991344;28;20226;-77
2022/12/29 09:39:11;;;;;;;11.52;2.05;;;20.10;99.90;;;;;;4992021;28;20727;-76
2022/12/29 09:41:49;;;;;;;10.55;2.05;;;20.10;99.90;;;;;;4993801;28;20223;-77
2022/12/29 09:44:26;;;;;;;8.88;2.03;;;20.10;99.90;;;;;;4983650;28;20206;-77
2022/12/29 09:47:00;;;;;;;8.10;1.88;;;20.10;99.90;;;;;;4993751;28;20243;-76
2022/12/29 09:49:42;;;;;;;10.50;1.70;;;20.10;99.90;;;;;;4990145;28;20227;-77
2022/12/29 09:52:18;;;;;;;8.30;2.03;;;20.20;99.90;;;;;;4991798;28;20207;-77
2022/12/29 09:54:57;;;;;;;9.18;1.45;;;20.20;99.90;;;;;;4993454;28;20206;-77
2022/12/29 09:57:31;;;;;;;8.75;1.50;;;20.20;99.90;;;;;;4990922;28;20199;-77
2022/12/29 10:00:07;;;;;;;9.55;1.92;;;20.10;99.90;;;;;;4992706;28;20291;-75
2022/12/29 10:02:42;;;;;;;9.95;2.08;;;20.10;99.90;;;;;;4989886;28;20226;-78
2022/12/29 10:05:33;;;;;;;7.70;2.20;;;20.10;99.90;;;;;;4992609;28;20255;-77
2022/12/29 10:08:16;;;;;;;12.63;2.30;;;20.10;99.90;;;;;;4993295;28;20298;-77
2022/12/29 10:10:56;;;;;;;6.30;1.75;;;20.10;99.90;;;;;;4988202;28;20203;-77
2022/12/29 10:13:58;;;;;;;8.60;2.00;;;20.00;99.90;;;;;;4991242;28;20267;-76
2022/12/29 10:16:35;;;;;;;9.05;2.00;;;20.00;99.90;;;;;;4998920;28;20199;-76
2022/12/29 10:19:40;;;;;;;9.40;1.90;;;20.00;99.90;;;;;;5000241;28;20201;-76
2022/12/29 10:22:24;;;;;;;11.02;2.17;;;20.00;99.90;;;;;;4994173;28;20651;-76
2022/12/29 10:24:57;;;;;;;9.90;1.80;;;20.00;99.90;;;;;;4990862;28;20281;-77
2022/12/29 10:27:33;;;;;;;8.73;1.90;;;20.00;99.90;;;;;;4997416;28;20575;-77
2022/12/29 10:30:05;;;;;;;10.40;2.08;;;20.00;99.90;;;;;;5000087;28;20282;-76
2022/12/29 10:32:40;;;;;;;5.90;1.45;;;20.00;99.90;;;;;;4997949;28;20196;-76
2022/12/29 10:35:18;;;;;;;9.93;1.92;;;20.00;99.90;;;;;;4993866;28;20279;-77
2022/12/29 10:37:55;;;;;;;12.75;2.40;;;20.00;99.90;;;;;;4998800;28;20286;-76
2022/12/29 10:40:30;;;;;;;9.35;1.88;;;19.90;99.90;;;;;;4997934;28;20566;-76
2022/12/29 10:43:04;;;;;;;10.02;2.05;;;19.90;99.90;;;;;;4997479;28;20222;-76
2022/12/29 10:45:36;;;;;;;10.50;1.95;;;19.90;99.90;;;;;;4997042;28;20283;-77
2022/12/29 10:48:12;;;;;;;10.32;1.80;;;19.90;99.90;;;;;;4998311;28;20250;-78
2022/12/29 10:50:48;;;;;;;8.40;1.88;;;19.90;99.90;;;;;;4997930;28;20293;-76
2022/12/29 10:53:25;;;;;;;6.60;1.80;;;19.90;99.90;;;;;;4997267;28;20310;-76
2022/12/29 10:55:57;;;;;;;9.65;2.03;;;19.90;99.90;;;;;;5000228;28;20202;-76
2022/12/29 10:58:33;;;;;;;11.38;1.90;;;19.90;99.90;;;;;;4999708;28;20685;-77
2022/12/29 11:01:05;;;;;;;5.30;1.73;;;19.90;99.90;;;;;;4998418;28;20203;-77
2022/12/29 11:03:52;;;;;;;7.30;1.95;;;19.90;99.90;;;;;;4996525;28;20306;-77
2022/12/29 11:06:27;;;;;;;10.32;2.10;;;19.90;99.90;;;;;;4998169;28;20729;-77
2022/12/29 11:09:01;;;;;;;7.32;1.95;;;19.90;99.90;;;;;;4992190;28;20195;-77
2022/12/29 11:11:38;;;;;;;6.32;1.73;;;19.90;99.90;;;;;;4996916;28;20213;-76
2022/12/29 11:14:21;;;;;;;7.80;2.15;;;19.90;99.90;;;;;;4997508;28;20237;-76
2022/12/29 11:17:00;;;;;;;8.90;1.90;;;19.90;99.90;;;;;;4997220;28;20203;-76
2022/12/29 11:19:34;;;;;;;12.15;2.58;;;19.90;99.90;;;;;;4997634;28;21130;-76
2022/12/29 11:22:23;;;;;;;12.45;2.45;;;19.90;99.90;;;;;;4992050;28;20330;-78
2022/12/29 11:24:55;;;;;;;6.85;1.85;;;19.90;99.90;;;;;;4995833;28;20192;-76
2022/12/29 11:27:27;;;;;;;6.10;1.60;;;19.90;99.90;;;;;;4990923;28;20211;-77
2022/12/29 11:30:00;;;;;;;13.68;2.20;;;19.90;99.90;;;;;;4989473;28;20218;-77
2022/12/29 11:32:31;;;;;;;8.55;1.88;;;19.90;99.90;;;;;;4994515;28;20674;-76
2022/12/29 11:35:03;;;;;;;7.30;1.70;;;19.90;99.90;;;;;;4993671;28;20207;-77
2022/12/29 11:37:39;;;;;;;11.82;1.83;;;19.90;99.90;;;;;;4993434;28;20203;-77
2022/12/29 11:40:21;;;;;;;8.38;1.85;;;19.90;99.90;;;;;;4992442;28;20195;-77
2022/12/29 11:42:54;;;;;;;9.63;1.98;;;19.90;99.90;;;;;;4993799;28;20581;-77
2022/12/29 11:45:28;;;;;;;7.75;1.73;;;19.90;99.90;;;;;;4993249;28;20214;-77
2022/12/29 11:48:01;;;;;;;8.88;2.15;;;19.90;99.90;;;;;;4996089;28;20238;-78
2022/12/29 11:50:34;;;;;;;7.40;1.77;;;19.90;99.90;;;;;;4992839;28;20221;-77
2022/12/29 11:53:06;;;;;;;9.63;1.77;;;19.90;99.90;;;;;;4996247;28;20238;-78
2022/12/29 11:55:37;;;;;;;6.03;1.40;;;19.90;99.90;;;;;;4995240;28;20231;-77
2022/12/29 11:58:08;;;;;;;9.70;1.88;;;19.90;99.90;;;;;;4995008;28;20204;-77
2022/12/29 12:00:42;;;;;;;7.18;1.45;;;19.90;99.90;;;;;;4995509;28;20659;-79
2022/12/29 12:03:19;;;;;;;6.80;1.20;;;19.90;99.90;;;;;;4993872;28;20235;-78
2022/12/29 12:05:52;;;;;;;8.10;1.77;;;19.90;99.90;;;;;;4991728;28;20210;-78
2022/12/29 12:08:32;;;;;;;8.32;1.92;;;19.90;99.90;;;;;;4989855;28;20203;-77
2022/12/29 12:11:12;;;;;;;5.65;1.40;;;19.90;99.90;;;;;;4992409;28;20207;-77
2022/12/29 12:13:58;;;;;;;9.18;1.92;;;19.90;99.90;;;;;;4994081;28;20286;-79
2022/12/29 12:16:36;;;;;;;8.60;1.50;;;19.90;99.90;;;;;;4990056;28;20210;-77
2022/12/29 12:19:16;;;;;;;7.57;1.73;;;19.90;99.90;;;;;;4989328;28;20287;-78
2022/12/29 12:21:53;;;;;;;6.75;1.38;;;19.90;99.90;;;;;;4991343;28;20717;-77
2022/12/29 12:24:40;;;;;;;9.00;1.67;;;19.90;99.90;;;;;;4989227;28;20199;-77
2022/12/29 12:27:17;;;;;;;4.57;1.38;;;19.90;99.90;;;;;;4994117;28;20192;-78
2022/12/29 12:29:57;;;;;;;4.03;1.45;;;19.90;99.90;;;;;;4994264;28;20575;-77
2022/12/29 12:32:42;;;;;;;6.05;1.23;;;19.90;99.90;;;;;;4987444;28;20207;-78
2022/12/29 12:35:16;;;;;;;6.55;1.20;;;19.90;99.90;;;;;;4984421;28;20206;-77
2022/12/29 12:38:03;;;;;;;4.63;1.30;;;19.90;99.90;;;;;;4989722;28;20290;-77
2022/12/29 12:41:10;;;;;;;4.47;1.25;;;19.90;99.90;;;;;;4991314;28;20636;-78
2022/12/29 12:43:52;;;;;;;7.63;1.35;;;19.90;99.90;;;;;;4988949;28;20603;-77
2022/12/29 12:46:56;;;;;;;4.72;1.60;;;19.90;99.90;;;;;;4990348;28;20195;-77
2022/12/29 12:50:19;;;;;;;8.13;1.33;;;19.90;99.90;;;;;;4990301;28;20697;-78
2022/12/29 12:53:11;;;;;;;7.13;1.25;;;19.90;99.90;;;;;;4995062;28;20294;-78
2022/12/29 12:55:58;;;;;;;3.95;1.08;;;19.90;99.90;;;;;;4994076;28;20225;-77
2022/12/29 12:58:38;;;;;;;7.72;1.27;;;20.00;99.90;;;;;;4993752;28;20290;-78
2022/12/29 13:01:22;;;;;;;6.22;1.45;;;20.00;99.90;;;;;;4995016;28;20286;-78
2022/12/29 13:04:08;;;;;;;5.10;0.90;;;19.90;99.90;;;;;;4994541;28;20259;-78
2022/12/29 13:06:51;;;;;;;3.75;1.13;;;19.90;99.90;;;;;;4989537;28;20655;-78
2022/12/29 13:09:36;;;;;;;4.43;1.10;;;19.90;99.90;;;;;;4992370;28;20199;-78
2022/12/29 13:12:21;;;;;;;6.53;1.35;;;20.00;99.90;;;;;;4989652;28;20199;-78
2022/12/29 13:15:04;;;;;;;7.80;1.50;;;19.90;99.90;;;;;;4993301;28;20192;-78
2022/12/29 13:17:42;;;;;;;6.13;1.20;;;19.90;99.90;;;;;;4993555;28;20210;-78
2022/12/29 13:20:26;;;;;;;5.95;1.20;;;19.90;99.90;;;;;;4991355;28;20707;-77
2022/12/29 13:23:06;;;;;;;5.72;1.20;;;19.90;99.90;;;;;;4994497;28;20576;-77
2022/12/29 13:25:45;;;;;;;5.10;1.40;;;19.90;99.90;;;;;;4975167;28;20467;-78
2022/12/29 13:28:25;;;;;;;3.50;1.05;;;19.90;99.90;;;;;;4975479;28;20334;-78
2022/12/29 13:31:03;;;;;;;7.10;1.15;;;19.90;99.90;;;;;;4979307;28;20215;-78
2022/12/29 13:33:44;;;;;;;6.78;1.15;;;19.80;99.90;;;;;;4994153;28;20203;-78
2022/12/29 13:36:24;;;;;;;3.33;1.30;;;19.80;99.90;;;;;;4994720;28;20223;-78
2022/12/29 13:39:06;;;;;;;6.50;1.50;;;19.80;99.90;;;;;;4994375;28;20191;-78
2022/12/29 13:41:42;;;;;;;4.55;1.20;;;19.80;99.90;;;;;;4994387;28;20202;-78
2022/12/29 13:44:20;;;;;;;3.72;1.10;;;19.80;99.90;;;;;;4994216;28;20218;-78
2022/12/29 13:46:52;;;;;;;5.43;1.20;;;19.70;99.90;;;;;;4994005;28;20282;-79
2022/12/29 13:49:24;;;;;;;3.67;1.10;;;19.70;99.90;;;;;;4993578;28;20701;-77
2022/12/29 13:51:58;;;;;;;4.78;1.08;;;19.70;99.90;;;;;;4994143;28;20196;-78
2022/12/29 13:54:42;;;;;;;5.00;1.40;;;19.70;99.90;;;;;;4994277;28;20197;-78
2022/12/29 13:57:23;;;;;;;5.22;1.20;;;19.70;99.90;;;;;;4994203;28;20230;-78
2022/12/29 13:59:58;;;;;;;4.40;1.35;;;19.70;99.90;;;;;;4994147;28;20196;-77